createdAt,value
2023-04-08T00:00:25.073Z,100904.13
2023-04-08T00:03:18.637Z,100911.63
2023-04-08T00:05:52.600Z,100917.19
2023-04-08T00:08:26.084Z,100916.98
2023-04-08T00:10:59.544Z,100917.00
2023-04-08T00:13:32.965Z,100917.90
2023-04-08T00:16:08.638Z,100918.27
2023-04-08T00:18:41.909Z,100917.45
2023-04-08T00:21:16.928Z,100917.23
2023-04-08T00:23:50.561Z,100921.56
2023-04-08T00:26:23.953Z,100923.19
2023-04-08T00:28:57.554Z,100925.21
2023-04-08T00:31:31.451Z,100929.16
2023-04-08T00:34:05.645Z,100929.48
2023-04-08T00:36:39.869Z,100931.65
2023-04-08T00:39:13.750Z,100931.94
2023-04-08T00:41:47.324Z,100929.80
2023-04-08T00:44:20.966Z,100929.36
2023-04-08T00:46:54.465Z,100932.73
2023-04-08T00:49:28.721Z,100930.77
2023-04-08T00:52:02.573Z,100934.73
2023-04-08T00:54:38.158Z,100935.48
2023-04-08T00:57:11.996Z,100934.77
2023-04-08T00:59:46.594Z,100938.69
2023-04-08T01:02:27.877Z,100943.35
2023-04-08T01:05:05.192Z,100943.44
2023-04-08T01:07:43.517Z,100947.98
2023-04-08T01:10:20.044Z,100946.98
2023-04-08T01:12:56.936Z,100945.91
2023-04-08T01:15:32.576Z,100946.06
2023-04-08T01:18:10.894Z,100947.55
2023-04-08T01:20:46.047Z,100951.30
2023-04-08T01:23:27.615Z,100946.01
2023-04-08T01:26:02.019Z,100949.11
2023-04-08T01:28:37.016Z,100952.84
2023-04-08T01:31:12.079Z,100958.02
2023-04-08T01:33:47.126Z,100955.41
2023-04-08T01:36:22.320Z,100954.87
2023-04-08T01:38:56.358Z,100955.00
2023-04-08T01:41:31.620Z,100956.88
2023-04-08T01:44:06.432Z,100960.47
2023-04-08T01:46:41.098Z,100960.36
2023-04-08T01:49:16.183Z,100961.61
2023-04-08T01:51:50.367Z,100964.42
2023-04-08T01:54:25.213Z,100961.41
2023-04-08T01:56:59.791Z,100960.56
2023-04-08T01:59:37.030Z,100957.45
2023-04-08T02:02:12.882Z,100963.22
2023-04-08T02:04:46.730Z,100969.09
2023-04-08T02:07:20.811Z,100975.14
2023-04-08T02:09:54.274Z,100983.58
2023-04-08T02:12:29.328Z,100981.97
2023-04-08T02:15:02.932Z,100983.16
2023-04-08T02:17:48.057Z,100983.96
2023-04-08T02:20:25.103Z,100986.77
2023-04-08T02:23:04.045Z,100994.06
2023-04-08T02:25:40.346Z,100991.30
2023-04-08T02:28:16.027Z,100993.27
2023-04-08T02:30:53.094Z,100993.42
2023-04-08T02:33:27.552Z,100995.60
2023-04-08T02:36:02.457Z,100996.11
2023-04-08T02:38:35.967Z,101000.94
2023-04-08T02:41:09.766Z,101002.46
2023-04-08T02:43:43.365Z,101004.70
2023-04-08T02:46:17.257Z,101006.41
2023-04-08T02:48:51.558Z,101007.67
2023-04-08T02:51:26.421Z,101014.89
2023-04-08T02:54:00.178Z,101017.02
2023-04-08T02:56:34.405Z,101018.96
2023-04-08T02:59:08.076Z,101021.50
2023-04-08T03:01:41.559Z,101024.66
2023-04-08T03:04:15.130Z,101031.95
2023-04-08T03:06:48.795Z,101038.18
2023-04-08T03:09:23.069Z,101041.24
2023-04-08T03:11:56.581Z,101044.45
2023-04-08T03:14:30.365Z,101041.04
2023-04-08T03:17:04.002Z,101042.84
2023-04-08T03:19:37.657Z,101046.05
2023-04-08T03:22:11.475Z,101048.22
2023-04-08T03:24:45.209Z,101049.34
2023-04-08T03:27:18.596Z,101047.90
2023-04-08T03:29:53.780Z,101050.89
2023-04-08T03:32:27.653Z,101053.41
2023-04-08T03:35:01.164Z,101055.05
2023-04-08T03:37:34.726Z,101057.95
2023-04-08T03:40:10.088Z,101057.95
2023-04-08T03:42:43.795Z,101059.30
2023-04-08T03:45:17.152Z,101058.31
2023-04-08T03:47:51.204Z,101058.99
2023-04-08T03:50:24.976Z,101063.33
2023-04-08T03:52:58.636Z,101069.15
2023-04-08T03:55:32.603Z,101070.58
2023-04-08T03:58:06.644Z,101072.52
2023-04-08T04:00:41.942Z,101070.29
2023-04-08T04:03:16.103Z,101074.41
2023-04-08T04:05:50.313Z,101075.48
2023-04-08T04:08:24.102Z,101076.20
2023-04-08T04:10:57.633Z,101077.77
2023-04-08T04:13:31.286Z,101081.84
2023-04-08T04:16:04.880Z,101080.28
2023-04-08T04:18:38.395Z,101082.48
2023-04-08T04:21:12.191Z,101083.13
2023-04-08T04:23:46.277Z,101082.95
2023-04-08T04:26:19.970Z,101087.27
2023-04-08T04:28:53.774Z,101090.54
2023-04-08T04:31:28.217Z,101096.74
2023-04-08T04:34:01.978Z,101098.40
2023-04-08T04:36:35.977Z,101102.66
2023-04-08T04:39:09.721Z,101109.16
2023-04-08T04:41:44.697Z,101111.70
2023-04-08T04:44:18.380Z,101113.70
2023-04-08T04:46:52.039Z,101113.55
2023-04-08T04:49:25.855Z,101118.27
2023-04-08T04:51:59.287Z,101120.34
2023-04-08T04:54:32.653Z,101118.54
2023-04-08T04:57:06.423Z,101123.06
2023-04-08T04:59:40.328Z,101121.95
2023-04-08T05:02:14.189Z,101116.97
2023-04-08T05:04:47.895Z,101119.17
2023-04-08T05:07:22.122Z,101121.39
2023-04-08T05:09:55.808Z,101122.14
2023-04-08T05:12:30.244Z,101119.77
2023-04-08T05:15:03.954Z,101118.91
2023-04-08T05:17:37.911Z,101123.61
2023-04-08T05:20:12.876Z,101125.98
2023-04-08T05:22:46.530Z,101127.64
2023-04-08T05:25:20.367Z,101127.78
2023-04-08T05:27:53.897Z,101129.86
2023-04-08T05:30:27.824Z,101129.36
2023-04-08T05:33:01.505Z,101129.15
2023-04-08T05:35:35.762Z,101134.47
2023-04-08T05:38:09.314Z,101136.02
2023-04-08T05:40:43.237Z,101136.37
2023-04-08T05:43:16.930Z,101134.42
2023-04-08T05:45:50.641Z,101137.91
2023-04-08T05:48:24.583Z,101136.38
2023-04-08T05:50:57.832Z,101136.04
2023-04-08T05:53:31.264Z,101137.40
2023-04-08T05:56:05.163Z,101132.48
2023-04-08T05:58:38.936Z,101134.30
2023-04-08T06:01:12.455Z,101135.19
2023-04-08T06:03:46.493Z,101136.59
2023-04-08T06:06:20.541Z,101139.60
2023-04-08T06:08:54.046Z,101144.20
2023-04-08T06:11:28.088Z,101145.08
2023-04-08T06:14:02.059Z,101147.92
2023-04-08T06:16:35.625Z,101145.31
2023-04-08T06:19:09.268Z,101142.27
2023-04-08T06:21:43.161Z,101142.27
2023-04-08T06:24:16.859Z,101140.91
2023-04-08T06:26:50.669Z,101139.86
2023-04-08T06:29:24.363Z,101133.95
2023-04-08T06:31:58.175Z,101133.69
2023-04-08T06:34:32.449Z,101129.73
2023-04-08T06:37:06.644Z,101129.04
2023-04-08T06:39:40.478Z,101128.63
2023-04-08T06:42:13.998Z,101128.16
2023-04-08T06:44:59.182Z,101130.36
2023-04-08T06:47:32.826Z,101129.52
2023-04-08T06:50:07.152Z,101129.08
2023-04-08T06:52:40.767Z,101128.39
2023-04-08T06:55:14.731Z,101127.48
2023-04-08T06:57:48.254Z,101132.41
2023-04-08T07:00:22.518Z,101134.02
2023-04-08T07:02:56.296Z,101135.75
2023-04-08T07:05:30.151Z,101135.61
2023-04-08T07:08:03.867Z,101136.95
2023-04-08T07:10:38.011Z,101140.39
2023-04-08T07:13:12.599Z,101136.70
2023-04-08T07:15:46.176Z,101138.27
2023-04-08T07:18:20.054Z,101140.82
2023-04-08T07:20:56.030Z,101145.98
2023-04-08T07:23:29.221Z,101149.32
2023-04-08T07:26:07.353Z,101149.49
2023-04-08T07:28:40.537Z,101147.73
2023-04-08T07:31:17.112Z,101148.46
2023-04-08T07:33:50.863Z,101152.23
2023-04-08T07:36:24.281Z,101155.00
2023-04-08T07:38:57.868Z,101152.81
2023-04-08T07:41:31.762Z,101154.17
2023-04-08T07:44:05.556Z,101152.64
2023-04-08T07:46:41.809Z,101150.59
2023-04-08T07:49:15.930Z,101150.65
2023-04-08T07:51:49.388Z,101149.88
2023-04-08T07:54:22.883Z,101151.70
2023-04-08T07:56:57.303Z,101153.53
2023-04-08T07:59:31.302Z,101152.06
2023-04-08T08:02:05.341Z,101152.46
2023-04-08T08:04:39.204Z,101156.75
2023-04-08T08:07:13.164Z,101157.68
2023-04-08T08:09:46.926Z,101155.39
2023-04-08T08:12:20.973Z,101156.58
2023-04-08T08:14:55.190Z,101153.05
2023-04-08T08:17:31.697Z,101152.73
2023-04-08T08:20:06.258Z,101148.84
2023-04-08T08:22:50.780Z,101152.13
2023-04-08T08:25:30.160Z,101148.80
2023-04-08T08:28:03.674Z,101148.04
2023-04-08T08:30:38.738Z,101149.89
2023-04-08T08:33:12.643Z,101148.23
2023-04-08T08:35:46.892Z,101146.39
2023-04-08T08:38:20.787Z,101145.83
2023-04-08T08:41:00.109Z,101142.63
2023-04-08T08:43:34.967Z,101141.73
2023-04-08T08:46:12.539Z,101141.40
2023-04-08T08:48:46.382Z,101139.77
2023-04-08T08:51:20.793Z,101139.59
2023-04-08T08:53:54.516Z,101138.09
2023-04-08T08:56:29.180Z,101136.70
2023-04-08T08:59:02.704Z,101134.12
2023-04-08T09:01:38.039Z,101131.58
2023-04-08T09:04:14.651Z,101133.52
2023-04-08T09:06:50.428Z,101134.24
2023-04-08T09:09:24.951Z,101129.23
2023-04-08T09:12:06.763Z,101133.00
2023-04-08T09:14:40.771Z,101133.45
2023-04-08T09:17:14.784Z,101136.45
2023-04-08T09:20:17.537Z,101138.99
2023-04-08T09:23:02.015Z,101142.65
2023-04-08T09:25:36.181Z,101141.78
2023-04-08T09:28:22.851Z,101143.92
2023-04-08T09:30:56.582Z,101145.42
2023-04-08T09:33:36.259Z,101152.48
2023-04-08T09:36:10.385Z,101152.08
2023-04-08T09:38:44.441Z,101151.08
2023-04-08T09:41:20.982Z,101152.24
2023-04-08T09:43:56.457Z,101148.92
2023-04-08T09:46:34.667Z,101149.27
2023-04-08T09:49:16.048Z,101151.26
2023-04-08T09:52:01.283Z,101147.77
2023-04-08T09:54:46.292Z,101141.19
2023-04-08T09:57:34.092Z,101133.05
2023-04-08T10:00:15.229Z,101128.61
2023-04-08T10:02:57.856Z,101125.09
2023-04-08T10:05:32.654Z,101121.36
2023-04-08T10:08:07.088Z,101122.40
2023-04-08T10:10:43.205Z,101124.05
2023-04-08T10:13:17.273Z,101122.64
2023-04-08T10:15:51.201Z,101119.34
2023-04-08T10:18:38.718Z,101117.75
2023-04-08T10:21:35.066Z,101118.73
2023-04-08T10:24:13.070Z,101118.21
2023-04-08T10:26:49.141Z,101112.80
2023-04-08T10:29:46.745Z,101109.14
2023-04-08T10:32:42.467Z,101117.84
2023-04-08T10:35:16.205Z,101116.77
2023-04-08T10:37:50.104Z,101114.39
2023-04-08T10:40:24.221Z,101112.17
2023-04-08T10:43:00.190Z,101111.71
2023-04-08T10:45:33.494Z,101102.72
2023-04-08T10:48:24.059Z,101102.80
2023-04-08T10:50:58.988Z,101101.52
2023-04-08T10:53:34.272Z,101099.95
2023-04-08T10:56:15.373Z,101097.04
2023-04-08T10:58:56.841Z,101094.08
2023-04-08T11:01:39.888Z,101092.20
2023-04-08T11:04:19.105Z,101087.58
2023-04-08T11:06:52.926Z,101082.73
2023-04-08T11:09:26.901Z,101085.36
2023-04-08T11:12:00.433Z,101084.86
2023-04-08T11:14:34.605Z,101080.70
2023-04-08T11:17:09.348Z,101081.42
2023-04-08T11:19:43.994Z,101080.09
2023-04-08T11:22:18.190Z,101079.58
2023-04-08T11:24:52.202Z,101079.64
2023-04-08T11:27:26.652Z,101077.34
2023-04-08T11:30:00.719Z,101082.38
2023-04-08T11:32:35.557Z,101082.63
2023-04-08T11:35:10.524Z,101083.13
2023-04-08T11:37:45.222Z,101082.09
2023-04-08T11:40:24.873Z,101078.32
2023-04-08T11:42:58.776Z,101079.70
2023-04-08T11:45:40.218Z,101076.66
2023-04-08T11:48:15.565Z,101078.90
2023-04-08T11:50:51.391Z,101076.17
2023-04-08T11:53:27.628Z,101073.92
2023-04-08T11:56:17.673Z,101074.24
2023-04-08T11:58:52.075Z,101077.98
2023-04-08T12:01:26.123Z,101072.39
2023-04-08T12:04:04.320Z,101069.69
2023-04-08T12:06:36.207Z,101068.45
2023-04-08T12:09:09.673Z,101071.48
2023-04-08T12:11:43.170Z,101071.18
2023-04-08T12:14:16.446Z,101060.52
2023-04-08T12:16:50.115Z,101059.80
2023-04-08T12:19:24.941Z,101055.71
2023-04-08T12:21:58.885Z,101052.11
2023-04-08T12:24:32.296Z,101046.65
2023-04-08T12:27:06.374Z,101046.63
2023-04-08T12:29:40.295Z,101045.19
2023-04-08T12:32:15.404Z,101043.33
2023-04-08T12:34:49.000Z,101034.19
2023-04-08T12:37:22.611Z,101033.84
2023-04-08T12:39:56.345Z,101031.71
2023-04-08T12:42:29.775Z,101033.27
2023-04-08T12:45:03.532Z,101031.91
2023-04-08T12:47:37.101Z,101029.86
2023-04-08T12:50:12.100Z,101024.81
2023-04-08T12:52:45.938Z,101022.73
2023-04-08T12:55:19.816Z,101022.77
2023-04-08T12:57:53.546Z,101016.08
2023-04-08T13:00:26.990Z,101011.40
2023-04-08T13:03:00.728Z,101015.05
2023-04-08T13:05:43.196Z,101018.02
2023-04-08T13:08:17.982Z,101015.45
2023-04-08T13:10:52.395Z,101015.20
2023-04-08T13:13:27.018Z,101015.16
2023-04-08T13:16:00.678Z,101010.48
2023-04-08T13:18:34.117Z,101009.64
2023-04-08T13:21:08.858Z,101005.42
2023-04-08T13:23:42.639Z,101006.24
2023-04-08T13:26:16.288Z,101001.02
2023-04-08T13:28:56.716Z,100996.67
2023-04-08T13:31:31.876Z,100998.33
2023-04-08T13:34:05.401Z,100994.11
2023-04-08T13:36:38.849Z,100988.77
2023-04-08T13:39:13.196Z,100987.85
2023-04-08T13:41:46.570Z,100986.38
2023-04-08T13:44:20.097Z,100984.84
2023-04-08T13:46:53.501Z,100988.70
2023-04-08T13:49:28.090Z,100988.58
2023-04-08T13:52:02.292Z,100986.36
2023-04-08T13:54:36.747Z,100983.89
2023-04-08T13:57:10.320Z,100988.02
2023-04-08T13:59:44.845Z,100988.39
2023-04-08T14:02:18.759Z,100989.58
2023-04-08T14:04:52.768Z,100986.83
2023-04-08T14:07:26.169Z,100987.55
2023-04-08T14:10:00.313Z,100982.67
2023-04-08T14:12:33.866Z,100980.42
2023-04-08T14:15:08.884Z,100978.80
2023-04-08T14:17:43.014Z,100983.47
2023-04-08T14:20:16.494Z,100981.45
2023-04-08T14:22:50.222Z,100981.00
2023-04-08T14:25:24.039Z,100981.27
2023-04-08T14:27:58.723Z,100980.90
2023-04-08T14:30:32.719Z,100977.98
2023-04-08T14:33:06.683Z,100975.35
2023-04-08T14:35:40.768Z,100975.04
2023-04-08T14:38:14.695Z,100978.11
2023-04-08T14:40:48.375Z,100979.00
2023-04-08T14:43:22.095Z,100979.91
2023-04-08T14:45:55.723Z,100982.48
2023-04-08T14:48:30.997Z,100979.98
2023-04-08T14:51:05.007Z,100980.66
2023-04-08T14:53:38.698Z,100982.02
2023-04-08T14:56:13.089Z,100981.66
2023-04-08T14:58:46.296Z,100981.40
2023-04-08T15:01:19.997Z,100985.98
2023-04-08T15:03:53.642Z,100988.10
2023-04-08T15:06:28.026Z,100994.76
2023-04-08T15:09:01.624Z,100993.94
2023-04-08T15:11:35.133Z,100996.53
2023-04-08T15:14:08.654Z,100995.73
2023-04-08T15:16:42.415Z,100997.83
2023-04-08T15:19:16.259Z,100999.70
2023-04-08T15:21:50.260Z,100998.88
2023-04-08T15:24:23.930Z,101003.73
2023-04-08T15:26:57.964Z,101003.81
2023-04-08T15:29:31.877Z,101002.02
2023-04-08T15:32:05.400Z,101002.75
2023-04-08T15:34:38.980Z,101004.92
2023-04-08T15:37:12.370Z,101008.88
2023-04-08T15:39:46.443Z,101008.55
2023-04-08T15:42:20.708Z,101008.48
2023-04-08T15:44:54.080Z,101008.55
2023-04-08T15:47:27.814Z,101009.44
2023-04-08T15:50:01.826Z,101010.30
2023-04-08T15:52:36.040Z,101013.05
2023-04-08T15:55:11.553Z,101012.77
2023-04-08T15:57:45.147Z,101012.52
2023-04-08T16:00:19.934Z,101012.01
2023-04-08T16:02:53.689Z,101012.64
2023-04-08T16:05:30.062Z,101016.64
2023-04-08T16:08:04.792Z,101015.14
2023-04-08T16:10:38.352Z,101016.22
2023-04-08T16:13:12.049Z,101017.64
2023-04-08T16:15:46.026Z,101019.75
2023-04-08T16:18:19.662Z,101021.64
2023-04-08T16:20:53.878Z,101022.98
2023-04-08T16:23:27.525Z,101026.35
2023-04-08T16:26:01.751Z,101027.02
2023-04-08T16:28:34.959Z,101024.34
2023-04-08T16:31:08.644Z,101023.46
2023-04-08T16:33:42.185Z,101022.48
2023-04-08T16:36:16.054Z,101025.75
2023-04-08T16:38:49.564Z,101028.23
2023-04-08T16:41:23.520Z,101027.20
2023-04-08T16:43:58.083Z,101031.23
2023-04-08T16:46:32.394Z,101032.41
2023-04-08T16:49:06.593Z,101033.09
2023-04-08T16:51:40.637Z,101034.19
2023-04-08T16:54:14.279Z,101035.15
2023-04-08T16:56:47.899Z,101036.49
2023-04-08T16:59:21.645Z,101038.10
2023-04-08T17:01:55.164Z,101039.80
2023-04-08T17:04:28.893Z,101043.48
2023-04-08T17:07:03.683Z,101041.19
2023-04-08T17:09:37.219Z,101041.04
2023-04-08T17:12:11.357Z,101044.33
2023-04-08T17:14:45.121Z,101047.55
2023-04-08T17:17:19.286Z,101048.89
2023-04-08T17:19:53.425Z,101048.97
2023-04-08T17:22:27.770Z,101053.09
2023-04-08T17:25:01.526Z,101057.91
2023-04-08T17:27:35.179Z,101062.15
2023-04-08T17:30:11.551Z,101063.39
2023-04-08T17:32:46.288Z,101065.26
2023-04-08T17:35:19.958Z,101072.88
2023-04-08T17:37:54.030Z,101073.59
2023-04-08T17:40:28.312Z,101077.39
2023-04-08T17:43:01.962Z,101078.13
2023-04-08T17:45:35.752Z,101076.23
2023-04-08T17:48:10.266Z,101080.17
2023-04-08T17:50:43.848Z,101083.36
2023-04-08T17:53:17.757Z,101082.42
2023-04-08T17:55:51.677Z,101086.12
2023-04-08T17:58:26.873Z,101092.33
2023-04-08T18:01:01.033Z,101092.56
2023-04-08T18:03:34.774Z,101099.06
2023-04-08T18:06:10.720Z,101102.05
2023-04-08T18:08:44.426Z,101101.40
2023-04-08T18:11:17.989Z,101101.94
2023-04-08T18:13:52.828Z,101106.20
2023-04-08T18:16:26.810Z,101111.16
2023-04-08T18:19:00.492Z,101113.53
2023-04-08T18:21:34.492Z,101117.88
2023-04-08T18:24:09.201Z,101123.66
2023-04-08T18:26:43.936Z,101127.91
2023-04-08T18:29:19.594Z,101132.20
2023-04-08T18:31:53.775Z,101133.16
2023-04-08T18:34:27.428Z,101140.34
2023-04-08T18:37:01.414Z,101142.41
2023-04-08T18:39:35.713Z,101147.55
2023-04-08T18:42:09.133Z,101153.30
2023-04-08T18:44:43.184Z,101157.58
2023-04-08T18:47:17.503Z,101157.41
2023-04-08T18:49:51.286Z,101158.05
2023-04-08T18:52:25.433Z,101160.48
2023-04-08T18:55:00.362Z,101163.73
2023-04-08T18:57:34.886Z,101160.11
2023-04-08T19:00:11.096Z,101155.84
2023-04-08T19:02:44.481Z,101159.50
2023-04-08T19:05:18.191Z,101161.16
2023-04-08T19:07:52.248Z,101157.70
2023-04-08T19:10:26.926Z,101157.55
2023-04-08T19:13:00.942Z,101156.48
2023-04-08T19:15:34.784Z,101154.97
2023-04-08T19:18:08.198Z,101153.09
2023-04-08T19:20:41.950Z,101147.24
2023-04-08T19:23:16.558Z,101145.89
2023-04-08T19:25:50.769Z,101143.14
2023-04-08T19:28:24.660Z,101144.44
2023-04-08T19:30:58.183Z,101138.46
2023-04-08T19:33:32.228Z,101138.74
2023-04-08T19:36:06.255Z,101138.76
2023-04-08T19:38:40.041Z,101137.17
2023-04-08T19:41:13.863Z,101135.01
2023-04-08T19:43:48.337Z,101138.52
2023-04-08T19:46:21.855Z,101137.29
2023-04-08T19:48:58.944Z,101139.71
2023-04-08T19:51:33.152Z,101136.05
2023-04-08T19:54:07.085Z,101135.64
2023-04-08T19:56:40.945Z,101136.00
2023-04-08T19:59:14.668Z,101133.80
2023-04-08T20:01:48.600Z,101131.77
2023-04-08T20:04:22.139Z,101130.66
2023-04-08T20:06:56.455Z,101133.56
2023-04-08T20:09:30.199Z,101135.55
2023-04-08T20:12:06.325Z,101135.97
2023-04-08T20:14:45.399Z,101135.98
2023-04-08T20:17:21.270Z,101137.27
2023-04-08T20:19:55.146Z,101135.02
2023-04-08T20:22:28.757Z,101134.19
2023-04-08T20:25:02.586Z,101135.89
2023-04-08T20:27:36.901Z,101135.45
2023-04-08T20:30:12.529Z,101130.81
2023-04-08T20:32:46.650Z,101133.42
2023-04-08T20:35:21.426Z,101134.95
2023-04-08T20:37:54.773Z,101138.01
2023-04-08T20:40:28.609Z,101137.34
2023-04-08T20:43:02.764Z,101133.66
2023-04-08T20:45:38.134Z,101136.27
2023-04-08T20:48:12.184Z,101134.32
2023-04-08T20:50:46.530Z,101139.27
2023-04-08T20:53:20.660Z,101137.73
2023-04-08T20:55:54.175Z,101136.98
2023-04-08T20:58:27.874Z,101141.27
2023-04-08T21:01:02.555Z,101141.84
2023-04-08T21:03:36.080Z,101140.46
2023-04-08T21:06:09.972Z,101140.98
2023-04-08T21:08:43.576Z,101138.88
2023-04-08T21:11:17.523Z,101140.50
2023-04-08T21:13:50.844Z,101136.17
2023-04-08T21:16:24.241Z,101131.16
2023-04-08T21:18:59.595Z,101135.47
2023-04-08T21:21:33.314Z,101132.13
2023-04-08T21:24:09.907Z,101130.80
2023-04-08T21:26:44.089Z,101127.87
2023-04-08T21:29:18.053Z,101127.78
2023-04-08T21:31:51.816Z,101128.05
2023-04-08T21:34:25.158Z,101127.23
2023-04-08T21:36:58.761Z,101121.35
2023-04-08T21:39:32.186Z,101122.49
2023-04-08T21:42:06.415Z,101117.71
2023-04-08T21:44:40.312Z,101122.05
2023-04-08T21:47:14.608Z,101118.09
2023-04-08T21:49:48.938Z,101112.71
2023-04-08T21:52:22.160Z,101108.46
2023-04-08T21:54:55.687Z,101111.99
2023-04-08T21:57:29.298Z,101114.66
2023-04-08T22:00:05.150Z,101111.33
2023-04-08T22:02:49.404Z,101112.34
2023-04-08T22:05:23.676Z,101113.21
2023-04-08T22:07:57.712Z,101112.24
2023-04-08T22:10:31.526Z,101103.96
2023-04-08T22:13:05.232Z,101102.73
2023-04-08T22:15:38.665Z,101106.27
2023-04-08T22:18:12.132Z,101102.92
2023-04-08T22:20:45.863Z,101103.80
2023-04-08T22:23:19.405Z,101101.85
2023-04-08T22:25:54.077Z,101098.41
2023-04-08T22:28:28.004Z,101096.25
2023-04-08T22:31:01.665Z,101093.54
2023-04-08T22:33:35.801Z,101090.48
2023-04-08T22:36:09.403Z,101095.83
2023-04-08T22:38:42.723Z,101095.66
2023-04-08T22:41:22.357Z,101094.15
2023-04-08T22:43:55.839Z,101093.06
2023-04-08T22:46:29.447Z,101095.80
2023-04-08T22:49:03.093Z,101092.95
2023-04-08T22:51:36.996Z,101096.08
2023-04-08T22:54:11.583Z,101093.42
2023-04-08T22:56:45.396Z,101094.79
2023-04-08T22:59:19.366Z,101097.89
2023-04-08T23:01:54.237Z,101098.56
2023-04-08T23:04:28.409Z,101095.63
2023-04-08T23:07:02.134Z,101092.35
2023-04-08T23:09:35.352Z,101088.95
2023-04-08T23:12:08.932Z,101088.66
2023-04-08T23:14:42.661Z,101085.87
2023-04-08T23:17:16.188Z,101081.77
2023-04-08T23:19:49.841Z,101082.56
2023-04-08T23:22:23.364Z,101083.47
2023-04-08T23:24:56.870Z,101086.19
2023-04-08T23:27:30.379Z,101086.28
2023-04-08T23:30:06.009Z,101079.09
2023-04-08T23:32:39.970Z,101078.75
2023-04-08T23:35:14.101Z,101076.77
2023-04-08T23:37:47.458Z,101073.09
2023-04-08T23:40:21.249Z,101069.06
2023-04-08T23:42:55.051Z,101065.11
2023-04-08T23:45:28.644Z,101064.94
2023-04-08T23:48:02.454Z,101057.44
2023-04-08T23:50:35.765Z,101053.04
2023-04-08T23:53:09.370Z,101055.44
2023-04-08T23:55:43.357Z,101054.39
2023-04-08T23:58:17.032Z,101056.27
